<?xml version="1.0" encoding="UTF-8" standalone="no" ?>
<gpx xmlns="http://www.topografix.com/GPX/1/1" xmlns:xsi="http://www.w3.org/2001/XMLSchema-instance" xsi:schemaLocation="http://www.topografix.com/GPX/1/1 http://www.topografix.com/GPX/1/1/gpx.xsd" version="1.1" creator="VisuGPX - https://www.visugpx.com">
  <metadata>
    <name>Tour du Lac de La Thuile</name>
  </metadata>
  <trk>
    <name><![CDATA[2021-03-27_104958.gpx]]></name>
    <trkseg>
      <trkpt lat="45.53043" lon="6.05304">
        <ele>888.6</ele>
        <time>2021-03-27T09:50:03Z</time>
      </trkpt>
      <trkpt lat="45.53043" lon="6.05304">
        <ele>888.6</ele>
        <time>2021-03-27T09:50:03Z</time>
      </trkpt>
      <trkpt lat="45.53055" lon="6.05301">
        <ele>752.599</ele>
        <time>2021-03-27T09:50:14Z</time>
      </trkpt>
      <trkpt lat="45.53062" lon="6.05298">
        <ele>752.438</ele>
        <time>2021-03-27T09:50:19Z</time>
      </trkpt>
      <trkpt lat="45.53069" lon="6.05298">
        <ele>751.658</ele>
        <time>2021-03-27T09:50:24Z</time>
      </trkpt>
      <trkpt lat="45.53073" lon="6.05298">
        <ele>751.378</ele>
        <time>2021-03-27T09:50:30Z</time>
      </trkpt>
      <trkpt lat="45.53075" lon="6.05303">
        <ele>751.103</ele>
        <time>2021-03-27T09:50:36Z</time>
      </trkpt>
      <trkpt lat="45.5308" lon="6.05311">
        <ele>750.992</ele>
        <time>2021-03-27T09:50:44Z</time>
      </trkpt>
      <trkpt lat="45.53086" lon="6.05317">
        <ele>750.498</ele>
        <time>2021-03-27T09:50:50Z</time>
      </trkpt>
      <trkpt lat="45.53089" lon="6.05321">
        <ele>750.683</ele>
        <time>2021-03-27T09:50:55Z</time>
      </trkpt>
      <trkpt lat="45.53098" lon="6.05327">
        <ele>750.91</ele>
        <time>2021-03-27T09:51:05Z</time>
      </trkpt>
      <trkpt lat="45.53104" lon="6.05331">
        <ele>750.498</ele>
        <time>2021-03-27T09:51:10Z</time>
      </trkpt>
      <trkpt lat="45.53111" lon="6.05338">
        <ele>750.615</ele>
        <time>2021-03-27T09:51:15Z</time>
      </trkpt>
      <trkpt lat="45.53119" lon="6.05344">
        <ele>750.406</ele>
        <time>2021-03-27T09:51:20Z</time>
      </trkpt>
      <trkpt lat="45.53128" lon="6.05351">
        <ele>750.369</ele>
        <time>2021-03-27T09:51:26Z</time>
      </trkpt>
      <trkpt lat="45.53137" lon="6.05359">
        <ele>750.636</ele>
        <time>2021-03-27T09:51:36Z</time>
      </trkpt>
      <trkpt lat="45.53142" lon="6.05363">
        <ele>750.361</ele>
        <time>2021-03-27T09:51:41Z</time>
      </trkpt>
      <trkpt lat="45.53147" lon="6.05367">
        <ele>750.102</ele>
        <time>2021-03-27T09:51:46Z</time>
      </trkpt>
      <trkpt lat="45.53161" lon="6.05376">
        <ele>749.949</ele>
        <time>2021-03-27T09:51:56Z</time>
      </trkpt>
      <trkpt lat="45.53166" lon="6.05382">
        <ele>749.679</ele>
        <time>2021-03-27T09:52:01Z</time>
      </trkpt>
      <trkpt lat="45.53175" lon="6.05387">
        <ele>749.772</ele>
        <time>2021-03-27T09:52:06Z</time>
      </trkpt>
      <trkpt lat="45.5318" lon="6.05389">
        <ele>749.603</ele>
        <time>2021-03-27T09:52:11Z</time>
      </trkpt>
      <trkpt lat="45.53185" lon="6.05393">
        <ele>749.497</ele>
        <time>2021-03-27T09:52:16Z</time>
      </trkpt>
      <trkpt lat="45.53191" lon="6.05399">
        <ele>749.507</ele>
        <time>2021-03-27T09:52:21Z</time>
      </trkpt>
      <trkpt lat="45.53195" lon="6.05403">
        <ele>749.315</ele>
        <time>2021-03-27T09:52:26Z</time>
      </trkpt>
      <trkpt lat="45.53206" lon="6.05411">
        <ele>749.079</ele>
        <time>2021-03-27T09:52:36Z</time>
      </trkpt>
      <trkpt lat="45.53213" lon="6.05416">
        <ele>749.037</ele>
        <time>2021-03-27T09:52:41Z</time>
      </trkpt>
      <trkpt lat="45.53219" lon="6.05419">
        <ele>748.377</ele>
        <time>2021-03-27T09:52:46Z</time>
      </trkpt>
      <trkpt lat="45.53225" lon="6.05423">
        <ele>748.266</ele>
        <time>2021-03-27T09:52:51Z</time>
      </trkpt>
      <trkpt lat="45.53231" lon="6.05426">
        <ele>748.02</ele>
        <time>2021-03-27T09:52:56Z</time>
      </trkpt>
      <trkpt lat="45.53237" lon="6.0543">
        <ele>747.542</ele>
        <time>2021-03-27T09:53:01Z</time>
      </trkpt>
      <trkpt lat="45.53243" lon="6.05437">
        <ele>747.116</ele>
        <time>2021-03-27T09:53:06Z</time>
      </trkpt>
      <trkpt lat="45.53248" lon="6.05443">
        <ele>746.786</ele>
        <time>2021-03-27T09:53:11Z</time>
      </trkpt>
      <trkpt lat="45.53252" lon="6.05449">
        <ele>746.271</ele>
        <time>2021-03-27T09:53:16Z</time>
      </trkpt>
      <trkpt lat="45.53256" lon="6.05459">
        <ele>745.729</ele>
        <time>2021-03-27T09:53:21Z</time>
      </trkpt>
      <trkpt lat="45.53261" lon="6.05471">
        <ele>745.301</ele>
        <time>2021-03-27T09:53:29Z</time>
      </trkpt>
      <trkpt lat="45.53264" lon="6.05484">
        <ele>744.691</ele>
        <time>2021-03-27T09:53:39Z</time>
      </trkpt>
      <trkpt lat="45.53265" lon="6.05492">
        <ele>744.722</ele>
        <time>2021-03-27T09:53:44Z</time>
      </trkpt>
      <trkpt lat="45.5327" lon="6.05499">
        <ele>744.27</ele>
        <time>2021-03-27T09:53:49Z</time>
      </trkpt>
      <trkpt lat="45.5328" lon="6.05498">
        <ele>744.011</ele>
        <time>2021-03-27T09:53:59Z</time>
      </trkpt>
      <trkpt lat="45.53288" lon="6.05493">
        <ele>744.08</ele>
        <time>2021-03-27T09:54:04Z</time>
      </trkpt>
      <trkpt lat="45.53292" lon="6.05492">
        <ele>744.041</ele>
        <time>2021-03-27T09:54:09Z</time>
      </trkpt>
      <trkpt lat="45.53299" lon="6.05493">
        <ele>744.046</ele>
        <time>2021-03-27T09:54:14Z</time>
      </trkpt>
      <trkpt lat="45.53307" lon="6.05498">
        <ele>744.463</ele>
        <time>2021-03-27T09:54:19Z</time>
      </trkpt>
      <trkpt lat="45.5331" lon="6.05505">
        <ele>744.831</ele>
        <time>2021-03-27T09:54:24Z</time>
      </trkpt>
      <trkpt lat="45.53315" lon="6.05513">
        <ele>745.076</ele>
        <time>2021-03-27T09:54:29Z</time>
      </trkpt>
      <trkpt lat="45.53322" lon="6.05518">
        <ele>745.919</ele>
        <time>2021-03-27T09:54:34Z</time>
      </trkpt>
      <trkpt lat="45.53324" lon="6.05526">
        <ele>746.596</ele>
        <time>2021-03-27T09:54:39Z</time>
      </trkpt>
      <trkpt lat="45.53322" lon="6.05534">
        <ele>747.209</ele>
        <time>2021-03-27T09:54:44Z</time>
      </trkpt>
      <trkpt lat="45.5332" lon="6.0554">
        <ele>747.586</ele>
        <time>2021-03-27T09:54:49Z</time>
      </trkpt>
      <trkpt lat="45.53316" lon="6.05548">
        <ele>748.125</ele>
        <time>2021-03-27T09:54:54Z</time>
      </trkpt>
      <trkpt lat="45.5331" lon="6.05555">
        <ele>748.44</ele>
        <time>2021-03-27T09:54:59Z</time>
      </trkpt>
      <trkpt lat="45.53302" lon="6.0556">
        <ele>748.712</ele>
        <time>2021-03-27T09:55:04Z</time>
      </trkpt>
      <trkpt lat="45.53299" lon="6.05565">
        <ele>748.815</ele>
        <time>2021-03-27T09:55:09Z</time>
      </trkpt>
      <trkpt lat="45.53294" lon="6.05572">
        <ele>748.757</ele>
        <time>2021-03-27T09:55:14Z</time>
      </trkpt>
      <trkpt lat="45.53289" lon="6.05577">
        <ele>748.662</ele>
        <time>2021-03-27T09:55:19Z</time>
      </trkpt>
      <trkpt lat="45.53277" lon="6.05585">
        <ele>748.21</ele>
        <time>2021-03-27T09:55:29Z</time>
      </trkpt>
      <trkpt lat="45.53269" lon="6.05595">
        <ele>748.073</ele>
        <time>2021-03-27T09:55:39Z</time>
      </trkpt>
      <trkpt lat="45.53263" lon="6.05598">
        <ele>747.978</ele>
        <time>2021-03-27T09:55:44Z</time>
      </trkpt>
      <trkpt lat="45.53258" lon="6.05602">
        <ele>747.956</ele>
        <time>2021-03-27T09:55:49Z</time>
      </trkpt>
      <trkpt lat="45.53253" lon="6.05608">
        <ele>747.737</ele>
        <time>2021-03-27T09:55:54Z</time>
      </trkpt>
      <trkpt lat="45.53248" lon="6.05613">
        <ele>747.634</ele>
        <time>2021-03-27T09:55:59Z</time>
      </trkpt>
      <trkpt lat="45.53243" lon="6.05617">
        <ele>747.135</ele>
        <time>2021-03-27T09:56:04Z</time>
      </trkpt>
      <trkpt lat="45.53237" lon="6.05621">
        <ele>746.67</ele>
        <time>2021-03-27T09:56:09Z</time>
      </trkpt>
      <trkpt lat="45.53229" lon="6.05626">
        <ele>745.824</ele>
        <time>2021-03-27T09:56:19Z</time>
      </trkpt>
      <trkpt lat="45.53223" lon="6.05629">
        <ele>745.52</ele>
        <time>2021-03-27T09:56:24Z</time>
      </trkpt>
      <trkpt lat="45.53219" lon="6.05633">
        <ele>745.111</ele>
        <time>2021-03-27T09:56:29Z</time>
      </trkpt>
      <trkpt lat="45.53209" lon="6.05637">
        <ele>744.685</ele>
        <time>2021-03-27T09:56:39Z</time>
      </trkpt>
      <trkpt lat="45.53202" lon="6.0564">
        <ele>744.455</ele>
        <time>2021-03-27T09:56:44Z</time>
      </trkpt>
      <trkpt lat="45.53195" lon="6.05643">
        <ele>744.178</ele>
        <time>2021-03-27T09:56:49Z</time>
      </trkpt>
      <trkpt lat="45.53189" lon="6.05647">
        <ele>743.753</ele>
        <time>2021-03-27T09:56:54Z</time>
      </trkpt>
      <trkpt lat="45.53184" lon="6.0565">
        <ele>743.496</ele>
        <time>2021-03-27T09:56:59Z</time>
      </trkpt>
      <trkpt lat="45.53179" lon="6.05653">
        <ele>743.536</ele>
        <time>2021-03-27T09:57:04Z</time>
      </trkpt>
      <trkpt lat="45.53173" lon="6.05656">
        <ele>743.229</ele>
        <time>2021-03-27T09:57:09Z</time>
      </trkpt>
      <trkpt lat="45.53165" lon="6.05662">
        <ele>742.553</ele>
        <time>2021-03-27T09:57:19Z</time>
      </trkpt>
      <trkpt lat="45.53152" lon="6.0567">
        <ele>742.656</ele>
        <time>2021-03-27T09:58:04Z</time>
      </trkpt>
      <trkpt lat="45.5315" lon="6.05673">
        <ele>742.796</ele>
        <time>2021-03-27T09:58:09Z</time>
      </trkpt>
      <trkpt lat="45.53143" lon="6.05684">
        <ele>742.244</ele>
        <time>2021-03-27T09:58:19Z</time>
      </trkpt>
      <trkpt lat="45.53139" lon="6.05695">
        <ele>742.302</ele>
        <time>2021-03-27T09:58:24Z</time>
      </trkpt>
      <trkpt lat="45.53134" lon="6.057">
        <ele>742.135</ele>
        <time>2021-03-27T09:58:29Z</time>
      </trkpt>
      <trkpt lat="45.53125" lon="6.05705">
        <ele>742.067</ele>
        <time>2021-03-27T09:58:34Z</time>
      </trkpt>
      <trkpt lat="45.53119" lon="6.05709">
        <ele>741.853</ele>
        <time>2021-03-27T09:58:39Z</time>
      </trkpt>
      <trkpt lat="45.53114" lon="6.05713">
        <ele>741.538</ele>
        <time>2021-03-27T09:58:44Z</time>
      </trkpt>
      <trkpt lat="45.5311" lon="6.05716">
        <ele>741.221</ele>
        <time>2021-03-27T09:58:49Z</time>
      </trkpt>
      <trkpt lat="45.53105" lon="6.05722">
        <ele>741.303</ele>
        <time>2021-03-27T09:58:54Z</time>
      </trkpt>
      <trkpt lat="45.53101" lon="6.05727">
        <ele>741.232</ele>
        <time>2021-03-27T09:58:59Z</time>
      </trkpt>
      <trkpt lat="45.53094" lon="6.05738">
        <ele>741.073</ele>
        <time>2021-03-27T09:59:09Z</time>
      </trkpt>
      <trkpt lat="45.53088" lon="6.05748">
        <ele>740.643</ele>
        <time>2021-03-27T09:59:19Z</time>
      </trkpt>
      <trkpt lat="45.5308" lon="6.05754">
        <ele>740.582</ele>
        <time>2021-03-27T09:59:29Z</time>
      </trkpt>
      <trkpt lat="45.53075" lon="6.05768">
        <ele>740.452</ele>
        <time>2021-03-27T09:59:39Z</time>
      </trkpt>
      <trkpt lat="45.53071" lon="6.05777">
        <ele>740.23</ele>
        <time>2021-03-27T09:59:44Z</time>
      </trkpt>
      <trkpt lat="45.53069" lon="6.05779">
        <ele>740.294</ele>
        <time>2021-03-27T09:59:49Z</time>
      </trkpt>
      <trkpt lat="45.53063" lon="6.05788">
        <ele>740.347</ele>
        <time>2021-03-27T09:59:59Z</time>
      </trkpt>
      <trkpt lat="45.53058" lon="6.05794">
        <ele>740.497</ele>
        <time>2021-03-27T10:00:04Z</time>
      </trkpt>
      <trkpt lat="45.53054" lon="6.05802">
        <ele>740.376</ele>
        <time>2021-03-27T10:00:09Z</time>
      </trkpt>
      <trkpt lat="45.53046" lon="6.05812">
        <ele>740.249</ele>
        <time>2021-03-27T10:00:19Z</time>
      </trkpt>
      <trkpt lat="45.53045" lon="6.05819">
        <ele>740.344</ele>
        <time>2021-03-27T10:00:25Z</time>
      </trkpt>
      <trkpt lat="45.53042" lon="6.05829">
        <ele>740.283</ele>
        <time>2021-03-27T10:00:30Z</time>
      </trkpt>
      <trkpt lat="45.53038" lon="6.0584">
        <ele>740.336</ele>
        <time>2021-03-27T10:00:35Z</time>
      </trkpt>
      <trkpt lat="45.53036" lon="6.05847">
        <ele>740.407</ele>
        <time>2021-03-27T10:00:40Z</time>
      </trkpt>
      <trkpt lat="45.53033" lon="6.05853">
        <ele>740.46</ele>
        <time>2021-03-27T10:00:45Z</time>
      </trkpt>
      <trkpt lat="45.5303" lon="6.05861">
        <ele>740.154</ele>
        <time>2021-03-27T10:00:53Z</time>
      </trkpt>
      <trkpt lat="45.53026" lon="6.05869">
        <ele>740.31</ele>
        <time>2021-03-27T10:01:05Z</time>
      </trkpt>
      <trkpt lat="45.53022" lon="6.05875">
        <ele>740.249</ele>
        <time>2021-03-27T10:01:10Z</time>
      </trkpt>
      <trkpt lat="45.53016" lon="6.05888">
        <ele>740.254</ele>
        <time>2021-03-27T10:01:17Z</time>
      </trkpt>
      <trkpt lat="45.53012" lon="6.05896">
        <ele>740.238</ele>
        <time>2021-03-27T10:01:22Z</time>
      </trkpt>
      <trkpt lat="45.5301" lon="6.059">
        <ele>740.423</ele>
        <time>2021-03-27T10:01:32Z</time>
      </trkpt>
      <trkpt lat="45.53007" lon="6.05907">
        <ele>740.362</ele>
        <time>2021-03-27T10:01:42Z</time>
      </trkpt>
      <trkpt lat="45.53003" lon="6.05914">
        <ele>740.69</ele>
        <time>2021-03-27T10:01:47Z</time>
      </trkpt>
      <trkpt lat="45.53" lon="6.05918">
        <ele>739.734</ele>
        <time>2021-03-27T10:01:54Z</time>
      </trkpt>
      <trkpt lat="45.52995" lon="6.05931">
        <ele>740.904</ele>
        <time>2021-03-27T10:01:59Z</time>
      </trkpt>
      <trkpt lat="45.52992" lon="6.05939">
        <ele>740.994</ele>
        <time>2021-03-27T10:02:04Z</time>
      </trkpt>
      <trkpt lat="45.52991" lon="6.05946">
        <ele>740.865</ele>
        <time>2021-03-27T10:02:09Z</time>
      </trkpt>
      <trkpt lat="45.52989" lon="6.05953">
        <ele>740.933</ele>
        <time>2021-03-27T10:02:14Z</time>
      </trkpt>
      <trkpt lat="45.52987" lon="6.05961">
        <ele>741.287</ele>
        <time>2021-03-27T10:02:19Z</time>
      </trkpt>
      <trkpt lat="45.52982" lon="6.05974">
        <ele>740.727</ele>
        <time>2021-03-27T10:02:29Z</time>
      </trkpt>
      <trkpt lat="45.52979" lon="6.05977">
        <ele>741.414</ele>
        <time>2021-03-27T10:02:34Z</time>
      </trkpt>
      <trkpt lat="45.52971" lon="6.05978">
        <ele>742.048</ele>
        <time>2021-03-27T10:02:44Z</time>
      </trkpt>
      <trkpt lat="45.52964" lon="6.05991">
        <ele>742.141</ele>
        <time>2021-03-27T10:02:54Z</time>
      </trkpt>
      <trkpt lat="45.52961" lon="6.06">
        <ele>742.278</ele>
        <time>2021-03-27T10:02:59Z</time>
      </trkpt>
      <trkpt lat="45.52957" lon="6.06004">
        <ele>742.294</ele>
        <time>2021-03-27T10:03:04Z</time>
      </trkpt>
      <trkpt lat="45.52951" lon="6.06012">
        <ele>742.846</ele>
        <time>2021-03-27T10:03:14Z</time>
      </trkpt>
      <trkpt lat="45.52944" lon="6.06024">
        <ele>743.362</ele>
        <time>2021-03-27T10:03:24Z</time>
      </trkpt>
      <trkpt lat="45.52939" lon="6.06036">
        <ele>743.951</ele>
        <time>2021-03-27T10:03:34Z</time>
      </trkpt>
      <trkpt lat="45.52934" lon="6.06045">
        <ele>744.429</ele>
        <time>2021-03-27T10:03:42Z</time>
      </trkpt>
      <trkpt lat="45.52923" lon="6.06048">
        <ele>745.327</ele>
        <time>2021-03-27T10:03:52Z</time>
      </trkpt>
      <trkpt lat="45.52918" lon="6.06058">
        <ele>745.734</ele>
        <time>2021-03-27T10:03:57Z</time>
      </trkpt>
      <trkpt lat="45.52916" lon="6.06072">
        <ele>746.125</ele>
        <time>2021-03-27T10:04:02Z</time>
      </trkpt>
      <trkpt lat="45.5291" lon="6.06082">
        <ele>746.936</ele>
        <time>2021-03-27T10:04:12Z</time>
      </trkpt>
      <trkpt lat="45.529" lon="6.06089">
        <ele>747.756</ele>
        <time>2021-03-27T10:04:22Z</time>
      </trkpt>
      <trkpt lat="45.52891" lon="6.06098">
        <ele>748.561</ele>
        <time>2021-03-27T10:04:32Z</time>
      </trkpt>
      <trkpt lat="45.52884" lon="6.06104">
        <ele>749.206</ele>
        <time>2021-03-27T10:04:42Z</time>
      </trkpt>
      <trkpt lat="45.52877" lon="6.06113">
        <ele>750.02</ele>
        <time>2021-03-27T10:04:52Z</time>
      </trkpt>
      <trkpt lat="45.52873" lon="6.06123">
        <ele>750.031</ele>
        <time>2021-03-27T10:04:57Z</time>
      </trkpt>
      <trkpt lat="45.52866" lon="6.06124">
        <ele>750.173</ele>
        <time>2021-03-27T10:05:02Z</time>
      </trkpt>
      <trkpt lat="45.52858" lon="6.06133">
        <ele>749.875</ele>
        <time>2021-03-27T10:05:12Z</time>
      </trkpt>
      <trkpt lat="45.52853" lon="6.06138">
        <ele>749.5</ele>
        <time>2021-03-27T10:05:17Z</time>
      </trkpt>
      <trkpt lat="45.52849" lon="6.06141">
        <ele>749.272</ele>
        <time>2021-03-27T10:05:22Z</time>
      </trkpt>
      <trkpt lat="45.52843" lon="6.06139">
        <ele>748.791</ele>
        <time>2021-03-27T10:05:27Z</time>
      </trkpt>
      <trkpt lat="45.52839" lon="6.06129">
        <ele>748.226</ele>
        <time>2021-03-27T10:05:32Z</time>
      </trkpt>
      <trkpt lat="45.52833" lon="6.06113">
        <ele>747.047</ele>
        <time>2021-03-27T10:05:42Z</time>
      </trkpt>
      <trkpt lat="45.52829" lon="6.06103">
        <ele>746.625</ele>
        <time>2021-03-27T10:05:47Z</time>
      </trkpt>
      <trkpt lat="45.52826" lon="6.06095">
        <ele>746.012</ele>
        <time>2021-03-27T10:05:52Z</time>
      </trkpt>
      <trkpt lat="45.52822" lon="6.06086">
        <ele>745.436</ele>
        <time>2021-03-27T10:05:57Z</time>
      </trkpt>
      <trkpt lat="45.52819" lon="6.06078">
        <ele>744.944</ele>
        <time>2021-03-27T10:06:02Z</time>
      </trkpt>
      <trkpt lat="45.52816" lon="6.06069">
        <ele>744.802</ele>
        <time>2021-03-27T10:06:07Z</time>
      </trkpt>
      <trkpt lat="45.52813" lon="6.06065">
        <ele>744.532</ele>
        <time>2021-03-27T10:06:12Z</time>
      </trkpt>
      <trkpt lat="45.52807" lon="6.06055">
        <ele>744.096</ele>
        <time>2021-03-27T10:06:22Z</time>
      </trkpt>
      <trkpt lat="45.52803" lon="6.06042">
        <ele>744.059</ele>
        <time>2021-03-27T10:06:32Z</time>
      </trkpt>
      <trkpt lat="45.52802" lon="6.06034">
        <ele>743.996</ele>
        <time>2021-03-27T10:06:37Z</time>
      </trkpt>
      <trkpt lat="45.52799" lon="6.06028">
        <ele>744.08</ele>
        <time>2021-03-27T10:06:42Z</time>
      </trkpt>
      <trkpt lat="45.52798" lon="6.06013">
        <ele>744.767</ele>
        <time>2021-03-27T10:06:52Z</time>
      </trkpt>
      <trkpt lat="45.52795" lon="6.05998">
        <ele>746.102</ele>
        <time>2021-03-27T10:07:02Z</time>
      </trkpt>
      <trkpt lat="45.52796" lon="6.05986">
        <ele>746.931</ele>
        <time>2021-03-27T10:07:12Z</time>
      </trkpt>
      <trkpt lat="45.52799" lon="6.05979">
        <ele>746.918</ele>
        <time>2021-03-27T10:07:22Z</time>
      </trkpt>
      <trkpt lat="45.52799" lon="6.05952">
        <ele>745.673</ele>
        <time>2021-03-27T10:07:32Z</time>
      </trkpt>
      <trkpt lat="45.52797" lon="6.05936">
        <ele>744.548</ele>
        <time>2021-03-27T10:07:42Z</time>
      </trkpt>
      <trkpt lat="45.528" lon="6.05924">
        <ele>743.076</ele>
        <time>2021-03-27T10:07:52Z</time>
      </trkpt>
      <trkpt lat="45.52803" lon="6.05911">
        <ele>742.918</ele>
        <time>2021-03-27T10:08:02Z</time>
      </trkpt>
      <trkpt lat="45.5281" lon="6.05907">
        <ele>742.828</ele>
        <time>2021-03-27T10:08:07Z</time>
      </trkpt>
      <trkpt lat="45.52809" lon="6.05892">
        <ele>743.1</ele>
        <time>2021-03-27T10:08:17Z</time>
      </trkpt>
      <trkpt lat="45.52797" lon="6.05875">
        <ele>743.103</ele>
        <time>2021-03-27T10:08:22Z</time>
      </trkpt>
      <trkpt lat="45.52793" lon="6.05866">
        <ele>743.24</ele>
        <time>2021-03-27T10:08:27Z</time>
      </trkpt>
      <trkpt lat="45.52793" lon="6.05858">
        <ele>743.25</ele>
        <time>2021-03-27T10:08:32Z</time>
      </trkpt>
      <trkpt lat="45.52796" lon="6.05842">
        <ele>743.285</ele>
        <time>2021-03-27T10:08:43Z</time>
      </trkpt>
      <trkpt lat="45.52796" lon="6.05828">
        <ele>742.743</ele>
        <time>2021-03-27T10:08:53Z</time>
      </trkpt>
      <trkpt lat="45.52797" lon="6.05823">
        <ele>741.599</ele>
        <time>2021-03-27T10:08:58Z</time>
      </trkpt>
      <trkpt lat="45.52801" lon="6.05809">
        <ele>740.822</ele>
        <time>2021-03-27T10:09:03Z</time>
      </trkpt>
      <trkpt lat="45.52806" lon="6.05804">
        <ele>740.434</ele>
        <time>2021-03-27T10:09:08Z</time>
      </trkpt>
      <trkpt lat="45.52812" lon="6.05801">
        <ele>740.241</ele>
        <time>2021-03-27T10:09:13Z</time>
      </trkpt>
      <trkpt lat="45.52826" lon="6.05791">
        <ele>740.27</ele>
        <time>2021-03-27T10:09:23Z</time>
      </trkpt>
      <trkpt lat="45.52831" lon="6.05786">
        <ele>740.31</ele>
        <time>2021-03-27T10:09:28Z</time>
      </trkpt>
      <trkpt lat="45.52839" lon="6.05778">
        <ele>740.328</ele>
        <time>2021-03-27T10:09:38Z</time>
      </trkpt>
      <trkpt lat="45.52842" lon="6.05774">
        <ele>740.384</ele>
        <time>2021-03-27T10:09:43Z</time>
      </trkpt>
      <trkpt lat="45.5285" lon="6.05766">
        <ele>739.958</ele>
        <time>2021-03-27T10:09:53Z</time>
      </trkpt>
      <trkpt lat="45.52855" lon="6.05758">
        <ele>740.13</ele>
        <time>2021-03-27T10:09:58Z</time>
      </trkpt>
      <trkpt lat="45.5286" lon="6.05752">
        <ele>739.99</ele>
        <time>2021-03-27T10:10:03Z</time>
      </trkpt>
      <trkpt lat="45.52863" lon="6.05747">
        <ele>740.217</ele>
        <time>2021-03-27T10:10:08Z</time>
      </trkpt>
      <trkpt lat="45.52869" lon="6.05738">
        <ele>740.072</ele>
        <time>2021-03-27T10:10:48Z</time>
      </trkpt>
      <trkpt lat="45.52876" lon="6.05733">
        <ele>740.545</ele>
        <time>2021-03-27T10:11:44Z</time>
      </trkpt>
      <trkpt lat="45.52882" lon="6.05732">
        <ele>740.193</ele>
        <time>2021-03-27T10:11:55Z</time>
      </trkpt>
      <trkpt lat="45.5288" lon="6.05723">
        <ele>740.402</ele>
        <time>2021-03-27T10:12:03Z</time>
      </trkpt>
      <trkpt lat="45.52892" lon="6.05708">
        <ele>740.178</ele>
        <time>2021-03-27T10:12:16Z</time>
      </trkpt>
      <trkpt lat="45.52897" lon="6.057">
        <ele>740.162</ele>
        <time>2021-03-27T10:12:23Z</time>
      </trkpt>
      <trkpt lat="45.52898" lon="6.05688">
        <ele>740.249</ele>
        <time>2021-03-27T10:12:31Z</time>
      </trkpt>
      <trkpt lat="45.52902" lon="6.05681">
        <ele>740.188</ele>
        <time>2021-03-27T10:12:36Z</time>
      </trkpt>
      <trkpt lat="45.52901" lon="6.05662">
        <ele>740.481</ele>
        <time>2021-03-27T10:12:51Z</time>
      </trkpt>
      <trkpt lat="45.529" lon="6.05655">
        <ele>740.447</ele>
        <time>2021-03-27T10:12:56Z</time>
      </trkpt>
      <trkpt lat="45.52901" lon="6.05647">
        <ele>741.216</ele>
        <time>2021-03-27T10:13:06Z</time>
      </trkpt>
      <trkpt lat="45.52898" lon="6.05638">
        <ele>742.352</ele>
        <time>2021-03-27T10:13:14Z</time>
      </trkpt>
      <trkpt lat="45.52897" lon="6.05629">
        <ele>742.793</ele>
        <time>2021-03-27T10:13:19Z</time>
      </trkpt>
      <trkpt lat="45.529" lon="6.05625">
        <ele>743.723</ele>
        <time>2021-03-27T10:13:26Z</time>
      </trkpt>
      <trkpt lat="45.52899" lon="6.05615">
        <ele>745.306</ele>
        <time>2021-03-27T10:13:34Z</time>
      </trkpt>
      <trkpt lat="45.52897" lon="6.05607">
        <ele>746.115</ele>
        <time>2021-03-27T10:13:42Z</time>
      </trkpt>
      <trkpt lat="45.52897" lon="6.05595">
        <ele>746.45</ele>
        <time>2021-03-27T10:13:50Z</time>
      </trkpt>
      <trkpt lat="45.52904" lon="6.05588">
        <ele>747.01</ele>
        <time>2021-03-27T10:14:05Z</time>
      </trkpt>
      <trkpt lat="45.52908" lon="6.05577">
        <ele>747.209</ele>
        <time>2021-03-27T10:14:10Z</time>
      </trkpt>
      <trkpt lat="45.5291" lon="6.05573">
        <ele>747.338</ele>
        <time>2021-03-27T10:14:15Z</time>
      </trkpt>
      <trkpt lat="45.52916" lon="6.05566">
        <ele>747.132</ele>
        <time>2021-03-27T10:14:25Z</time>
      </trkpt>
      <trkpt lat="45.52921" lon="6.05569">
        <ele>747.38</ele>
        <time>2021-03-27T10:14:35Z</time>
      </trkpt>
      <trkpt lat="45.52929" lon="6.05565">
        <ele>747.692</ele>
        <time>2021-03-27T10:15:55Z</time>
      </trkpt>
      <trkpt lat="45.52928" lon="6.05558">
        <ele>748.266</ele>
        <time>2021-03-27T10:16:45Z</time>
      </trkpt>
      <trkpt lat="45.52929" lon="6.05544">
        <ele>749.629</ele>
        <time>2021-03-27T10:17:02Z</time>
      </trkpt>
      <trkpt lat="45.52916" lon="6.05552">
        <ele>748.678</ele>
        <time>2021-03-27T10:17:21Z</time>
      </trkpt>
      <trkpt lat="45.52923" lon="6.05559">
        <ele>747.951</ele>
        <time>2021-03-27T10:18:26Z</time>
      </trkpt>
      <trkpt lat="45.52933" lon="6.05555">
        <ele>749.016</ele>
        <time>2021-03-27T10:19:16Z</time>
      </trkpt>
      <trkpt lat="45.52938" lon="6.05537">
        <ele>749.708</ele>
        <time>2021-03-27T10:19:26Z</time>
      </trkpt>
      <trkpt lat="45.5294" lon="6.0553">
        <ele>750.342</ele>
        <time>2021-03-27T10:19:31Z</time>
      </trkpt>
      <trkpt lat="45.52942" lon="6.05513">
        <ele>751.518</ele>
        <time>2021-03-27T10:19:41Z</time>
      </trkpt>
      <trkpt lat="45.52943" lon="6.05502">
        <ele>752.298</ele>
        <time>2021-03-27T10:19:51Z</time>
      </trkpt>
      <trkpt lat="45.52947" lon="6.05487">
        <ele>752.625</ele>
        <time>2021-03-27T10:20:01Z</time>
      </trkpt>
      <trkpt lat="45.52948" lon="6.0548">
        <ele>752.646</ele>
        <time>2021-03-27T10:20:06Z</time>
      </trkpt>
      <trkpt lat="45.52952" lon="6.05473">
        <ele>752.921</ele>
        <time>2021-03-27T10:20:11Z</time>
      </trkpt>
      <trkpt lat="45.52955" lon="6.05464">
        <ele>752.905</ele>
        <time>2021-03-27T10:20:16Z</time>
      </trkpt>
      <trkpt lat="45.52959" lon="6.05453">
        <ele>753.082</ele>
        <time>2021-03-27T10:20:26Z</time>
      </trkpt>
      <trkpt lat="45.52961" lon="6.05446">
        <ele>753.04</ele>
        <time>2021-03-27T10:20:31Z</time>
      </trkpt>
      <trkpt lat="45.52961" lon="6.05433">
        <ele>753.569</ele>
        <time>2021-03-27T10:20:41Z</time>
      </trkpt>
      <trkpt lat="45.52963" lon="6.05421">
        <ele>753.455</ele>
        <time>2021-03-27T10:20:51Z</time>
      </trkpt>
      <trkpt lat="45.52967" lon="6.05402">
        <ele>753.159</ele>
        <time>2021-03-27T10:21:01Z</time>
      </trkpt>
      <trkpt lat="45.5297" lon="6.05393">
        <ele>752.995</ele>
        <time>2021-03-27T10:21:06Z</time>
      </trkpt>
      <trkpt lat="45.52972" lon="6.05383">
        <ele>752.623</ele>
        <time>2021-03-27T10:21:11Z</time>
      </trkpt>
      <trkpt lat="45.52977" lon="6.05372">
        <ele>751.996</ele>
        <time>2021-03-27T10:21:21Z</time>
      </trkpt>
      <trkpt lat="45.52981" lon="6.05365">
        <ele>752.245</ele>
        <time>2021-03-27T10:21:26Z</time>
      </trkpt>
      <trkpt lat="45.52984" lon="6.05359">
        <ele>752.409</ele>
        <time>2021-03-27T10:21:31Z</time>
      </trkpt>
      <trkpt lat="45.52987" lon="6.05347">
        <ele>752.686</ele>
        <time>2021-03-27T10:21:40Z</time>
      </trkpt>
      <trkpt lat="45.52991" lon="6.05339">
        <ele>752.942</ele>
        <time>2021-03-27T10:21:46Z</time>
      </trkpt>
      <trkpt lat="45.52995" lon="6.05335">
        <ele>753.106</ele>
        <time>2021-03-27T10:21:51Z</time>
      </trkpt>
      <trkpt lat="45.53005" lon="6.0533">
        <ele>753.46</ele>
        <time>2021-03-27T10:22:01Z</time>
      </trkpt>
      <trkpt lat="45.5301" lon="6.05319">
        <ele>754.441</ele>
        <time>2021-03-27T10:22:11Z</time>
      </trkpt>
      <trkpt lat="45.5301" lon="6.05318">
        <ele>755.135</ele>
        <time>2021-03-27T10:22:22Z</time>
      </trkpt>
      <trkpt lat="45.53007" lon="6.05313">
        <ele>755.537</ele>
        <time>2021-03-27T10:22:30Z</time>
      </trkpt>
      <trkpt lat="45.52999" lon="6.05317">
        <ele>755.154</ele>
        <time>2021-03-27T10:23:17Z</time>
      </trkpt>
      <trkpt lat="45.52994" lon="6.05321">
        <ele>754.929</ele>
        <time>2021-03-27T10:23:25Z</time>
      </trkpt>
      <trkpt lat="45.52988" lon="6.05328">
        <ele>754.036</ele>
        <time>2021-03-27T10:23:33Z</time>
      </trkpt>
    </trkseg>
  </trk>
  <trk>
    <name><![CDATA[Tour du Lac de La Thuile_2]]></name>
    <trkseg>
      <trkpt lat="45.53099" lon="6.05961">
        <ele>921.8</ele>
      </trkpt>
    </trkseg>
  </trk>
</gpx>